createdAt,value
2023-01-03T00:00:56.287Z,0.85
2023-01-03T00:03:23.000Z,0.85
2023-01-03T00:05:49.990Z,0.80
2023-01-03T00:08:16.676Z,1.05
2023-01-03T00:10:43.721Z,1.10
2023-01-03T00:13:10.397Z,0.98
2023-01-03T00:15:38.675Z,1.20
2023-01-03T00:18:05.543Z,1.08
2023-01-03T00:20:34.366Z,0.90
2023-01-03T00:23:02.267Z,0.98
2023-01-03T00:25:29.776Z,0.75
2023-01-03T00:27:56.744Z,0.73
2023-01-03T00:30:23.680Z,0.80
2023-01-03T00:32:50.432Z,0.77
2023-01-03T00:35:17.163Z,0.60
2023-01-03T00:37:43.825Z,0.60
2023-01-03T00:40:11.361Z,0.80
2023-01-03T00:42:58.037Z,0.60
2023-01-03T00:45:25.878Z,0.50
2023-01-03T00:47:53.210Z,0.70
2023-01-03T00:50:19.973Z,0.60
2023-01-03T00:52:46.674Z,0.80
2023-01-03T00:55:13.360Z,0.80
2023-01-03T00:57:40.023Z,0.80
2023-01-03T01:00:07.335Z,0.90
2023-01-03T01:02:34.146Z,0.50
2023-01-03T01:05:01.103Z,0.70
2023-01-03T01:07:28.551Z,0.70
2023-01-03T01:09:55.303Z,0.70
2023-01-03T01:12:21.999Z,1.20
2023-01-03T01:14:48.744Z,1.40
2023-01-03T01:17:19.261Z,1.70
2023-01-03T01:19:49.320Z,1.60
2023-01-03T01:22:15.984Z,1.75
2023-01-03T01:24:42.756Z,1.00
2023-01-03T01:27:09.566Z,1.08
2023-01-03T01:29:37.483Z,1.13
2023-01-03T01:32:04.487Z,1.20
2023-01-03T01:34:31.237Z,0.98
2023-01-03T01:36:57.980Z,1.13
2023-01-03T01:39:27.347Z,0.93
2023-01-03T01:42:19.834Z,1.30
2023-01-03T01:44:52.170Z,0.98
2023-01-03T01:47:27.382Z,0.70
2023-01-03T01:50:38.768Z,0.82
2023-01-03T01:53:06.213Z,0.98
2023-01-03T01:55:56.452Z,1.05
2023-01-03T01:58:24.216Z,0.82
2023-01-03T02:00:51.029Z,0.95
2023-01-03T02:03:17.799Z,0.70
2023-01-03T02:05:47.399Z,0.82
2023-01-03T02:08:14.193Z,0.60
2023-01-03T02:10:40.893Z,0.98
2023-01-03T02:13:48.386Z,0.80
2023-01-03T02:16:21.133Z,0.90
2023-01-03T02:19:05.159Z,0.70
2023-01-03T02:21:41.401Z,0.80
2023-01-03T02:24:38.977Z,1.58
2023-01-03T02:27:30.144Z,0.50
2023-01-03T02:30:26.689Z,0.73
2023-01-03T02:33:04.166Z,0.80
2023-01-03T02:35:32.379Z,1.13
2023-01-03T02:38:20.762Z,0.80
2023-01-03T02:40:58.832Z,0.80
2023-01-03T02:43:39.315Z,0.80
2023-01-03T02:46:28.822Z,0.75
2023-01-03T02:49:04.866Z,1.10
2023-01-03T02:51:37.629Z,0.90
2023-01-03T02:54:05.779Z,1.30
2023-01-03T02:56:41.883Z,0.73
2023-01-03T02:59:12.585Z,0.65
2023-01-03T03:01:44.937Z,0.80
2023-01-03T03:04:14.994Z,0.80
2023-01-03T03:06:43.262Z,0.82
2023-01-03T03:09:09.940Z,0.90
2023-01-03T03:11:55.809Z,0.90
2023-01-03T03:14:34.005Z,0.90
2023-01-03T03:17:03.325Z,0.90
2023-01-03T03:19:53.191Z,1.10
2023-01-03T03:22:45.004Z,1.00
2023-01-03T03:25:29.723Z,0.95
2023-01-03T03:28:20.036Z,0.82
2023-01-03T03:30:48.230Z,1.10
2023-01-03T03:33:14.915Z,0.88
2023-01-03T03:36:00.244Z,0.93
2023-01-03T03:38:38.910Z,0.90
2023-01-03T03:42:02.039Z,1.10
2023-01-03T03:45:01.639Z,1.00
2023-01-03T03:47:43.846Z,0.90
2023-01-03T03:50:20.764Z,1.02
2023-01-03T03:52:49.447Z,1.00
2023-01-03T03:55:21.984Z,1.10
2023-01-03T03:57:55.007Z,1.08
2023-01-03T04:00:24.548Z,0.90
2023-01-03T04:02:51.393Z,0.80
2023-01-03T04:05:20.679Z,1.08
2023-01-03T04:07:47.428Z,1.20
2023-01-03T04:10:15.536Z,1.20
2023-01-03T04:12:42.273Z,1.00
2023-01-03T04:15:09.275Z,1.13
2023-01-03T04:17:35.889Z,1.02
2023-01-03T04:20:02.675Z,1.10
2023-01-03T04:22:29.528Z,1.10
2023-01-03T04:24:56.221Z,1.15
2023-01-03T04:27:22.921Z,1.20
2023-01-03T04:29:49.714Z,1.00
2023-01-03T04:32:16.542Z,1.02
2023-01-03T04:34:43.329Z,1.30
2023-01-03T04:37:10.081Z,1.05
2023-01-03T04:39:36.755Z,1.15
2023-01-03T04:42:23.487Z,2.00
2023-01-03T04:44:50.281Z,1.30
2023-01-03T04:47:17.138Z,1.33
2023-01-03T04:52:33.478Z,1.17
2023-01-03T04:55:00.220Z,1.08
2023-01-03T04:57:26.866Z,1.33
2023-01-03T04:59:53.639Z,1.40
2023-01-03T05:02:20.410Z,2.00
2023-01-03T05:04:47.195Z,2.20
2023-01-03T05:07:13.917Z,1.80
2023-01-03T05:09:40.665Z,1.98
2023-01-03T05:12:07.754Z,1.55
2023-01-03T05:14:35.831Z,1.60
2023-01-03T05:17:03.503Z,1.38
2023-01-03T05:19:30.480Z,1.60
2023-01-03T05:22:15.756Z,1.50
2023-01-03T05:25:01.118Z,1.50
2023-01-03T05:27:27.865Z,1.77
2023-01-03T05:29:54.643Z,2.30
2023-01-03T05:32:21.378Z,1.83
2023-01-03T05:34:48.235Z,1.70
2023-01-03T05:37:14.913Z,1.77
2023-01-03T05:39:41.680Z,1.90
2023-01-03T05:42:08.317Z,2.80
2023-01-03T05:44:35.147Z,3.15
2023-01-03T05:47:03.772Z,2.83
2023-01-03T05:49:30.650Z,2.30
2023-01-03T05:51:57.410Z,2.08
2023-01-03T05:54:24.305Z,1.80
2023-01-03T05:56:51.542Z,2.25
2023-01-03T05:59:19.042Z,2.05
2023-01-03T06:01:45.845Z,1.83
2023-01-03T06:04:12.608Z,2.15
2023-01-03T06:06:39.331Z,1.80
2023-01-03T06:09:05.983Z,2.10
2023-01-03T06:11:32.760Z,2.10
2023-01-03T06:13:59.461Z,1.75
2023-01-03T06:16:44.708Z,2.00
2023-01-03T06:19:11.631Z,2.65
2023-01-03T06:21:38.918Z,2.40
2023-01-03T06:24:05.881Z,2.78
2023-01-03T06:26:32.714Z,2.38
2023-01-03T06:29:00.585Z,2.30
2023-01-03T06:31:27.623Z,2.97
2023-01-03T06:33:54.540Z,3.28
2023-01-03T06:36:22.627Z,3.38
2023-01-03T06:38:49.679Z,4.75
2023-01-03T06:41:17.140Z,4.70
2023-01-03T06:43:44.221Z,4.45
2023-01-03T06:46:31.012Z,4.97
2023-01-03T06:49:17.347Z,3.28
2023-01-03T06:52:02.982Z,3.67
2023-01-03T06:54:31.763Z,3.20
2023-01-03T06:56:58.977Z,3.42
2023-01-03T06:59:26.080Z,4.40
2023-01-03T07:01:53.460Z,3.72
2023-01-03T07:04:21.520Z,2.97
2023-01-03T07:06:48.355Z,2.80
2023-01-03T07:09:15.289Z,2.40
2023-01-03T07:11:42.360Z,1.90
2023-01-03T07:14:10.216Z,1.92
2023-01-03T07:16:44.022Z,2.00
2023-01-03T07:19:13.167Z,1.88
2023-01-03T07:21:40.308Z,2.40
2023-01-03T07:24:07.988Z,2.58
2023-01-03T07:26:35.389Z,3.53
2023-01-03T07:29:03.990Z,3.38
2023-01-03T07:31:32.773Z,3.13
2023-01-03T07:34:00.355Z,2.80
2023-01-03T07:36:27.277Z,2.53
2023-01-03T07:38:54.172Z,2.92
2023-01-03T07:41:20.902Z,2.55
2023-01-03T07:43:48.928Z,2.45
2023-01-03T07:46:23.746Z,2.05
2023-01-03T07:48:55.623Z,2.40
2023-01-03T07:51:22.803Z,2.40
2023-01-03T07:53:50.723Z,2.30
2023-01-03T07:56:20.096Z,2.97
2023-01-03T07:58:47.594Z,2.58
2023-01-03T08:01:17.209Z,2.63
2023-01-03T08:03:44.501Z,2.78
2023-01-03T08:06:14.070Z,2.80
2023-01-03T08:08:41.058Z,2.55
2023-01-03T08:11:27.921Z,2.35
2023-01-03T08:13:54.659Z,2.80
2023-01-03T08:16:21.436Z,2.75
2023-01-03T08:18:48.568Z,2.65
2023-01-03T08:21:16.072Z,3.03
2023-01-03T08:23:43.166Z,2.88
2023-01-03T08:26:12.192Z,2.30
2023-01-03T08:28:39.014Z,2.55
2023-01-03T08:31:12.184Z,2.00
2023-01-03T08:36:07.990Z,2.70
2023-01-03T08:38:44.620Z,2.38
2023-01-03T08:41:11.341Z,2.60
2023-01-03T08:43:39.163Z,2.70
2023-01-03T08:46:06.590Z,2.28
2023-01-03T08:48:33.798Z,2.15
2023-01-03T08:51:01.481Z,2.42
2023-01-03T08:53:28.979Z,2.47
2023-01-03T08:55:56.422Z,2.88
2023-01-03T08:58:23.214Z,2.88
2023-01-03T09:00:49.941Z,2.78
2023-01-03T09:03:16.784Z,2.83
2023-01-03T09:05:43.628Z,3.20
2023-01-03T09:08:10.258Z,3.45
2023-01-03T09:10:39.674Z,3.13
2023-01-03T09:13:09.165Z,2.70
2023-01-03T09:15:35.849Z,3.00
2023-01-03T09:18:02.548Z,3.03
2023-01-03T09:20:29.269Z,4.82
2023-01-03T09:22:55.985Z,3.25
2023-01-03T09:25:22.749Z,3.13
2023-01-03T09:27:49.465Z,3.72
2023-01-03T09:30:16.864Z,2.72
2023-01-03T09:32:43.638Z,2.33
2023-01-03T09:35:10.407Z,2.58
2023-01-03T09:37:37.204Z,3.35
2023-01-03T09:40:04.386Z,4.38
2023-01-03T09:42:49.706Z,2.50
2023-01-03T09:45:24.671Z,2.80
2023-01-03T09:47:51.349Z,2.70
2023-01-03T09:50:39.483Z,2.70
2023-01-03T09:53:29.213Z,2.67
2023-01-03T09:56:06.573Z,3.00
2023-01-03T09:58:52.351Z,2.97
2023-01-03T10:01:40.706Z,3.45
2023-01-03T10:04:53.241Z,3.33
2023-01-03T10:07:49.954Z,2.90
2023-01-03T10:10:33.297Z,2.85
2023-01-03T10:16:04.407Z,3.38
2023-01-03T10:21:54.367Z,3.15
2023-01-03T10:24:41.432Z,3.17
2023-01-03T10:27:25.193Z,2.95
2023-01-03T10:29:54.507Z,3.45
2023-01-03T10:32:53.714Z,3.42
2023-01-03T10:35:34.115Z,3.58
2023-01-03T10:38:01.019Z,3.58
2023-01-03T10:40:42.386Z,3.45
2023-01-03T10:43:27.517Z,3.75
2023-01-03T10:45:56.027Z,3.75
2023-01-03T10:48:23.168Z,3.08
2023-01-03T10:50:50.980Z,3.58
2023-01-03T10:53:20.528Z,3.90
2023-01-03T10:55:49.083Z,3.90
2023-01-03T10:58:28.034Z,3.42
2023-01-03T11:01:20.100Z,3.65
2023-01-03T11:04:06.375Z,3.38
2023-01-03T11:06:33.220Z,3.60
2023-01-03T11:09:03.625Z,3.70
2023-01-03T11:11:32.848Z,2.70
2023-01-03T11:14:11.562Z,3.10
2023-01-03T11:16:38.610Z,3.10
2023-01-03T11:19:06.535Z,3.40
2023-01-03T11:22:04.630Z,3.13
2023-01-03T11:24:53.347Z,3.13
2023-01-03T11:27:59.252Z,3.30
2023-01-03T11:30:30.757Z,3.03
2023-01-03T11:33:40.084Z,3.00
2023-01-03T11:36:48.720Z,2.88
2023-01-03T11:39:38.206Z,2.72
2023-01-03T11:42:23.813Z,3.03
2023-01-03T11:44:59.744Z,2.35
2023-01-03T11:47:45.574Z,2.05
2023-01-03T11:50:25.171Z,1.95
2023-01-03T11:52:54.807Z,2.28
2023-01-03T11:55:50.361Z,2.13
2023-01-03T11:58:35.433Z,2.13
2023-01-03T12:01:14.494Z,2.22
2023-01-03T12:04:20.028Z,1.80
2023-01-03T12:07:45.187Z,2.25
2023-01-03T12:10:08.832Z,2.00
2023-01-03T12:13:02.930Z,1.88
2023-01-03T12:15:35.583Z,1.30
2023-01-03T12:18:06.458Z,0.82
2023-01-03T12:20:36.681Z,0.90
2023-01-03T12:23:05.399Z,1.30
2023-01-03T12:25:36.971Z,0.80
2023-01-03T12:28:10.481Z,1.20
2023-01-03T12:30:43.704Z,1.38
2023-01-03T12:33:16.275Z,1.73
2023-01-03T12:35:46.999Z,2.10
2023-01-03T12:38:13.799Z,1.33
2023-01-03T12:40:43.774Z,1.55
2023-01-03T12:43:17.014Z,1.50
2023-01-03T12:45:49.373Z,2.30
2023-01-03T12:48:31.803Z,1.50
2023-01-03T12:50:58.661Z,1.30
2023-01-03T12:53:37.198Z,1.40
2023-01-03T12:56:19.290Z,2.05
2023-01-03T12:59:10.755Z,1.38
2023-01-03T13:01:46.419Z,1.20
2023-01-03T13:04:23.637Z,0.93
2023-01-03T13:07:03.080Z,1.40
2023-01-03T13:09:33.083Z,1.42
2023-01-03T13:12:08.853Z,1.77
2023-01-03T13:15:12.439Z,1.50
2023-01-03T13:17:47.575Z,1.08
2023-01-03T13:20:33.913Z,1.90
2023-01-03T13:23:02.212Z,1.40
2023-01-03T13:25:33.195Z,1.45
2023-01-03T13:28:01.935Z,1.33
2023-01-03T13:30:33.287Z,1.90
2023-01-03T13:33:12.262Z,1.63
2023-01-03T13:35:44.831Z,1.40
2023-01-03T13:38:32.717Z,1.40
2023-01-03T13:41:17.613Z,1.50
2023-01-03T13:43:45.794Z,1.50
2023-01-03T13:46:21.895Z,1.42
2023-01-03T13:49:07.480Z,2.15
2023-01-03T13:51:40.242Z,1.75
2023-01-03T13:54:13.051Z,1.73
2023-01-03T13:56:42.997Z,1.40
2023-01-03T13:59:15.785Z,1.30
2023-01-03T14:02:01.502Z,1.30
2023-01-03T14:04:56.931Z,1.58
2023-01-03T14:07:42.447Z,1.40
2023-01-03T14:10:43.295Z,1.20
2023-01-03T14:13:27.300Z,1.30
2023-01-03T14:16:20.365Z,2.30
2023-01-03T14:19:01.014Z,1.83
2023-01-03T14:21:39.406Z,1.85
2023-01-03T14:24:06.561Z,1.50
2023-01-03T14:26:34.567Z,1.70
2023-01-03T14:29:01.372Z,1.70
2023-01-03T14:31:28.533Z,1.55
2023-01-03T14:33:59.962Z,1.85
2023-01-03T14:36:27.688Z,1.52
2023-01-03T14:38:59.305Z,1.58
2023-01-03T14:41:32.264Z,1.95
2023-01-03T14:44:11.648Z,1.80
2023-01-03T14:46:39.603Z,1.90
2023-01-03T14:49:14.277Z,1.98
2023-01-03T14:51:41.009Z,1.55
2023-01-03T14:54:07.885Z,1.70
2023-01-03T14:56:35.040Z,2.10
2023-01-03T14:59:01.864Z,1.70
2023-01-03T15:01:29.152Z,1.88
2023-01-03T15:03:56.116Z,1.70
2023-01-03T15:06:24.452Z,1.90
2023-01-03T15:08:56.268Z,2.42
2023-01-03T15:11:35.578Z,2.38
2023-01-03T15:14:03.923Z,2.40
2023-01-03T15:16:36.775Z,3.25
2023-01-03T15:19:07.809Z,2.50
2023-01-03T15:21:34.710Z,2.08
2023-01-03T15:24:01.549Z,1.77
2023-01-03T15:26:41.756Z,1.73
2023-01-03T15:29:23.864Z,1.77
2023-01-03T15:31:52.250Z,2.10
2023-01-03T15:34:26.094Z,5.45
2023-01-03T15:37:05.648Z,4.60
2023-01-03T15:39:45.300Z,3.80
2023-01-03T15:42:49.129Z,3.70
2023-01-03T15:45:25.032Z,6.22
2023-01-03T15:50:19.539Z,4.38
2023-01-03T15:52:47.836Z,5.68
2023-01-03T15:55:15.785Z,6.10
2023-01-03T15:57:43.676Z,9.07
2023-01-03T16:00:14.620Z,7.55
2023-01-03T16:02:42.154Z,6.90
2023-01-03T16:05:19.573Z,5.18
2023-01-03T16:07:48.804Z,5.53
2023-01-03T16:10:15.725Z,5.03
2023-01-03T16:12:42.579Z,5.68
2023-01-03T16:15:16.776Z,6.68
2023-01-03T16:17:43.528Z,8.60
2023-01-03T16:20:14.382Z,7.55
2023-01-03T16:22:53.872Z,6.95
2023-01-03T16:25:25.646Z,7.03
2023-01-03T16:27:53.142Z,6.60
2023-01-03T16:30:20.518Z,7.18
2023-01-03T16:32:47.558Z,7.82
2023-01-03T16:35:18.638Z,7.07
2023-01-03T16:37:45.820Z,7.60
2023-01-03T16:40:19.298Z,6.80
2023-01-03T16:42:46.123Z,6.18
2023-01-03T16:45:13.005Z,7.05
2023-01-03T16:47:39.851Z,7.85
2023-01-03T16:50:08.599Z,9.07
2023-01-03T16:52:40.202Z,7.28
2023-01-03T16:55:16.285Z,7.50
2023-01-03T16:57:45.239Z,6.78
2023-01-03T17:00:21.116Z,7.63
2023-01-03T17:02:48.099Z,6.95
2023-01-03T17:05:15.237Z,6.10
2023-01-03T17:07:47.225Z,5.97
2023-01-03T17:10:31.140Z,6.47
2023-01-03T17:12:58.083Z,5.80
2023-01-03T17:15:25.025Z,6.07
2023-01-03T17:17:51.722Z,5.88
2023-01-03T17:20:19.570Z,6.65
2023-01-03T17:22:54.540Z,6.53
2023-01-03T17:25:21.303Z,6.22
2023-01-03T17:27:58.160Z,6.47
2023-01-03T17:30:26.578Z,5.90
2023-01-03T17:32:53.746Z,6.22
2023-01-03T17:35:20.578Z,5.30
2023-01-03T17:40:34.741Z,7.15
2023-01-03T17:43:02.031Z,7.32
2023-01-03T17:45:48.880Z,6.43
2023-01-03T17:48:34.454Z,7.35
2023-01-03T17:51:02.195Z,8.05
2023-01-03T17:53:29.123Z,11.07
2023-01-03T17:55:56.029Z,10.40
2023-01-03T17:58:29.200Z,9.05
2023-01-03T18:00:56.449Z,7.13
2023-01-03T18:03:24.075Z,9.05
2023-01-03T18:05:51.394Z,9.40
2023-01-03T18:08:19.503Z,10.68
2023-01-03T18:10:47.589Z,9.82
2023-01-03T18:13:27.640Z,7.72
2023-01-03T18:15:55.265Z,7.15
2023-01-03T18:18:23.358Z,7.43
2023-01-03T18:20:50.351Z,7.03
2023-01-03T18:23:20.752Z,8.52
2023-01-03T18:25:47.829Z,8.48
2023-01-03T18:28:16.252Z,8.10
2023-01-03T18:30:45.972Z,8.55
2023-01-03T18:33:13.305Z,8.35
2023-01-03T18:35:41.431Z,7.20
2023-01-03T18:38:33.979Z,6.80
2023-01-03T18:41:05.302Z,7.88
2023-01-03T18:43:34.083Z,7.67
2023-01-03T18:46:01.768Z,7.57
2023-01-03T18:48:29.206Z,7.57
2023-01-03T18:50:59.407Z,7.65
2023-01-03T18:53:28.836Z,6.75
2023-01-03T18:55:56.218Z,7.45
2023-01-03T18:58:36.242Z,7.78
2023-01-03T19:01:04.548Z,7.35
2023-01-03T19:03:33.016Z,7.45
2023-01-03T19:06:01.211Z,7.38
2023-01-03T19:08:31.542Z,6.75
2023-01-03T19:11:01.735Z,9.05
2023-01-03T19:13:30.713Z,8.63
2023-01-03T19:15:58.031Z,8.32
2023-01-03T19:18:25.576Z,7.90
2023-01-03T19:20:52.704Z,8.00
2023-01-03T19:23:23.699Z,8.23
2023-01-03T19:25:51.158Z,7.70
2023-01-03T19:28:22.665Z,7.93
2023-01-03T19:30:50.214Z,8.10
2023-01-03T19:33:19.632Z,7.75
2023-01-03T19:35:47.209Z,8.77
2023-01-03T19:38:14.585Z,9.40
2023-01-03T19:40:43.798Z,10.20
2023-01-03T19:43:28.713Z,8.55
2023-01-03T19:45:55.677Z,8.90
2023-01-03T19:48:24.067Z,8.65
2023-01-03T19:50:53.099Z,9.32
2023-01-03T19:53:20.007Z,9.07
2023-01-03T19:55:48.016Z,8.50
2023-01-03T19:58:24.980Z,8.82
2023-01-03T20:00:52.519Z,8.57
2023-01-03T20:03:34.279Z,8.80
2023-01-03T20:06:01.799Z,9.75
2023-01-03T20:08:28.573Z,7.80
2023-01-03T20:10:55.409Z,8.18
2023-01-03T20:13:27.019Z,8.25
2023-01-03T20:15:55.941Z,9.30
2023-01-03T20:18:29.967Z,8.55
2023-01-03T20:20:59.592Z,8.23
2023-01-03T20:23:26.382Z,9.30
2023-01-03T20:25:53.114Z,9.50
2023-01-03T20:28:29.022Z,9.77
2023-01-03T20:30:57.572Z,9.90
2023-01-03T20:33:24.971Z,10.30
2023-01-03T20:36:13.107Z,8.60
2023-01-03T20:38:39.972Z,9.38
2023-01-03T20:41:06.693Z,10.25
2023-01-03T20:43:33.493Z,14.43
2023-01-03T20:46:00.311Z,14.88
2023-01-03T20:48:27.279Z,11.40
2023-01-03T20:50:54.023Z,11.30
2023-01-03T20:53:23.124Z,11.40
2023-01-03T20:55:50.667Z,12.27
2023-01-03T20:58:27.989Z,10.95
2023-01-03T21:01:01.927Z,10.48
2023-01-03T21:03:31.218Z,9.07
2023-01-03T21:05:59.277Z,9.88
2023-01-03T21:08:44.745Z,9.88
2023-01-03T21:11:12.364Z,8.50
2023-01-03T21:13:47.503Z,8.55
2023-01-03T21:16:37.433Z,8.38
2023-01-03T21:19:22.311Z,7.32
2023-01-03T21:21:50.686Z,8.52
2023-01-03T21:24:20.489Z,8.63
2023-01-03T21:26:47.342Z,8.02
2023-01-03T21:29:14.172Z,8.32
2023-01-03T21:31:42.477Z,7.25
2023-01-03T21:34:18.782Z,7.85
2023-01-03T21:36:45.824Z,7.85
2023-01-03T21:39:12.521Z,9.73
2023-01-03T21:41:59.439Z,10.93
2023-01-03T21:44:26.156Z,9.50
2023-01-03T21:46:53.037Z,10.50
2023-01-03T21:49:20.151Z,9.38
2023-01-03T21:51:47.057Z,9.35
2023-01-03T21:54:13.735Z,8.95
2023-01-03T21:56:46.148Z,8.65
2023-01-03T21:59:16.631Z,8.32
2023-01-03T22:02:06.234Z,7.90
2023-01-03T22:04:33.563Z,8.75
2023-01-03T22:07:03.198Z,8.45
2023-01-03T22:09:49.401Z,8.65
2023-01-03T22:12:16.718Z,8.63
2023-01-03T22:14:44.795Z,8.63
2023-01-03T22:17:12.765Z,8.52
2023-01-03T22:19:39.425Z,8.50
2023-01-03T22:22:06.142Z,8.52
2023-01-03T22:24:32.993Z,9.20
2023-01-03T22:26:59.711Z,9.57
2023-01-03T22:29:26.404Z,8.02
2023-01-03T22:31:53.129Z,7.57
2023-01-03T22:34:19.869Z,7.80
2023-01-03T22:36:46.536Z,8.15
2023-01-03T22:39:13.212Z,8.32
2023-01-03T22:41:39.952Z,8.80
2023-01-03T22:44:06.647Z,10.48
2023-01-03T22:46:33.328Z,10.88
2023-01-03T22:48:59.985Z,9.82
2023-01-03T22:51:26.779Z,8.70
2023-01-03T22:53:53.429Z,9.93
2023-01-03T22:56:20.215Z,12.15
2023-01-03T22:58:46.958Z,11.32
2023-01-03T23:01:17.158Z,10.32
2023-01-03T23:03:44.825Z,9.15
2023-01-03T23:06:16.722Z,9.27
2023-01-03T23:08:43.447Z,10.70
2023-01-03T23:11:34.359Z,10.10
2023-01-03T23:14:02.641Z,10.05
2023-01-03T23:16:29.418Z,10.52
2023-01-03T23:18:56.153Z,10.55
2023-01-03T23:21:22.869Z,10.10
2023-01-03T23:23:52.573Z,9.63
2023-01-03T23:26:19.339Z,10.20
2023-01-03T23:28:46.035Z,9.45
2023-01-03T23:31:12.812Z,8.50
2023-01-03T23:33:39.595Z,8.00
2023-01-03T23:36:07.421Z,7.55
2023-01-03T23:38:34.139Z,7.53
2023-01-03T23:41:07.479Z,7.13
2023-01-03T23:43:34.533Z,6.60
2023-01-03T23:46:01.465Z,6.63
2023-01-03T23:48:28.234Z,7.20
2023-01-03T23:51:01.000Z,6.47
2023-01-03T23:53:27.637Z,6.97
2023-01-03T23:55:54.643Z,6.93
2023-01-03T23:58:21.328Z,6.78
